Time;durP1;ratioP1;P1;durP2;ratioP2;P2;SDS_P1;SDS_P2;PMS_P1;PMS_P2;Temp;Humidity;BMP_temperature;BMP_pressure;BME280_temperature;BME280_humidity;BME280_pressure;Samples;Min_cycle;Max_cycle;Signal;HPM_P1;HPM_P2
2022/03/28 00:02:08;;;;;;;2.93;2.73;;;;;;;;;;4947541;29;20211;-58
2022/03/28 00:04:35;;;;;;;3.17;2.97;;;;;;;;;;4948648;29;20306;-58
2022/03/28 00:07:02;;;;;;;2.50;2.37;;;;;;;;;;4935286;29;20211;-58
2022/03/28 00:09:31;;;;;;;3.13;2.90;;;;;;;;;;4950548;29;20270;-57
2022/03/28 00:11:58;;;;;;;3.30;3.10;;;;;;;;;;4941300;29;20208;-57
2022/03/28 00:14:25;;;;;;;3.03;2.83;;;;;;;;;;4949062;29;20214;-57
2022/03/28 00:16:54;;;;;;;2.80;2.60;;;;;;;;;;4935981;29;20212;-57
2022/03/28 00:19:21;;;;;;;3.07;2.87;;;;;;;;;;4940851;29;20275;-57
2022/03/28 00:21:48;;;;;;;2.77;2.57;;;;;;;;;;4945258;29;20208;-57
2022/03/28 00:24:15;;;;;;;2.57;2.47;;;;;;;;;;4942905;29;20216;-57
2022/03/28 00:26:44;;;;;;;3.60;2.73;;;;;;;;;;4930937;29;20890;-57
2022/03/28 00:29:11;;;;;;;2.50;2.30;;;;;;;;;;4946750;29;20203;-57
2022/03/28 00:31:38;;;;;;;2.67;2.47;;;;;;;;;;4946732;29;20207;-57
2022/03/28 00:34:05;;;;;;;2.50;2.40;;;;;;;;;;4941251;29;20222;-57
2022/03/28 00:36:32;;;;;;;3.33;3.03;;;;;;;;;;4945777;29;20226;-57
2022/03/28 00:38:59;;;;;;;3.73;2.67;;;;;;;;;;4939763;29;20243;-57
2022/03/28 00:41:26;;;;;;;3.07;2.87;;;;;;;;;;4936452;29;20306;-57
2022/03/28 00:43:56;;;;;;;3.20;2.90;;;;;;;;;;4933856;29;20216;-57
2022/03/28 00:46:23;;;;;;;5.60;2.70;;;;;;;;;;4932251;29;20215;-58
2022/03/28 00:48:50;;;;;;;3.10;2.90;;;;;;;;;;4945955;29;20246;-57
2022/03/28 00:51:18;;;;;;;3.00;2.70;;;;;;;;;;4939189;29;20214;-57
2022/03/28 00:53:45;;;;;;;4.10;2.97;;;;;;;;;;4950057;29;20274;-56
2022/03/28 00:56:13;;;;;;;4.20;3.03;;;;;;;;;;4932884;29;20298;-57
2022/03/28 00:58:40;;;;;;;3.00;2.70;;;;;;;;;;4939395;29;20325;-57
2022/03/28 01:01:10;;;;;;;3.80;3.00;;;;;;;;;;4942243;29;20206;-57
2022/03/28 01:03:37;;;;;;;3.70;3.00;;;;;;;;;;4949829;29;20207;-58
2022/03/28 01:06:05;;;;;;;2.73;2.53;;;;;;;;;;4948857;29;20629;-58
2022/03/28 01:08:33;;;;;;;3.20;2.90;;;;;;;;;;4935859;29;20269;-57
2022/03/28 01:11:01;;;;;;;3.43;3.13;;;;;;;;;;4945470;29;20744;-58
2022/03/28 01:13:28;;;;;;;2.60;2.40;;;;;;;;;;4932437;29;20204;-58
2022/03/28 01:15:55;;;;;;;2.63;2.53;;;;;;;;;;4935274;29;20215;-58
2022/03/28 01:18:23;;;;;;;2.50;2.40;;;;;;;;;;4946551;29;20662;-57
2022/03/28 01:20:50;;;;;;;4.90;2.80;;;;;;;;;;4950014;29;20218;-58
2022/03/28 01:23:18;;;;;;;3.90;2.63;;;;;;;;;;4936724;29;20692;-58
2022/03/28 01:25:46;;;;;;;3.00;2.70;;;;;;;;;;4934248;29;20236;-58
2022/03/28 01:28:13;;;;;;;3.27;2.97;;;;;;;;;;4944611;29;20227;-58
2022/03/28 01:30:40;;;;;;;3.20;3.00;;;;;;;;;;4939650;29;20215;-58
2022/03/28 01:33:07;;;;;;;5.17;3.00;;;;;;;;;;4946659;29;20207;-57
2022/03/28 01:35:35;;;;;;;3.93;2.80;;;;;;;;;;4949610;29;20217;-58
2022/03/28 01:38:02;;;;;;;3.80;2.30;;;;;;;;;;4948521;28;20261;-57
2022/03/28 01:40:31;;;;;;;3.27;3.00;;;;;;;;;;4941415;29;20203;-57
2022/03/28 01:42:58;;;;;;;2.77;2.60;;;;;;;;;;4949215;29;20665;-58
2022/03/28 01:45:25;;;;;;;3.30;3.00;;;;;;;;;;4950029;29;20263;-57
2022/03/28 01:47:53;;;;;;;4.83;3.33;;;;;;;;;;4936056;29;20207;-57
2022/03/28 01:50:20;;;;;;;3.03;2.77;;;;;;;;;;4935367;29;20685;-58
2022/03/28 01:52:48;;;;;;;3.40;3.10;;;;;;;;;;4950554;29;20210;-58
2022/03/28 01:55:15;;;;;;;3.00;2.80;;;;;;;;;;4943357;29;20207;-57
2022/03/28 01:57:44;;;;;;;3.47;3.23;;;;;;;;;;4934970;29;20231;-57
2022/03/28 02:00:13;;;;;;;2.57;2.40;;;;;;;;;;4941657;29;20639;-57
2022/03/28 02:02:40;;;;;;;3.67;2.70;;;;;;;;;;4934837;29;20215;-57
2022/03/28 02:05:11;;;;;;;3.43;2.93;;;;;;;;;;4943718;29;20919;-57
2022/03/28 02:07:38;;;;;;;3.97;3.27;;;;;;;;;;4933045;29;20254;-58
2022/03/28 02:10:05;;;;;;;12.50;5.30;;;;;;;;;;4940062;29;20207;-57
2022/03/28 02:12:32;;;;;;;10.97;5.63;;;;;;;;;;4943244;29;20258;-58
2022/03/28 02:15:01;;;;;;;15.67;6.90;;;;;;;;;;4942328;29;20592;-58
2022/03/28 02:17:28;;;;;;;30.60;10.87;;;;;;;;;;4951828;29;20215;-58
2022/03/28 02:19:55;;;;;;;29.67;12.00;;;;;;;;;;4941993;29;20216;-58
2022/03/28 02:22:22;;;;;;;98.33;25.43;;;;;;;;;;4949196;29;20278;-58
2022/03/28 02:24:49;;;;;;;79.93;23.40;;;;;;;;;;4946224;29;20286;-58
2022/03/28 02:27:16;;;;;;;91.63;25.90;;;;;;;;;;4952888;29;20234;-58
2022/03/28 02:29:43;;;;;;;73.17;19.77;;;;;;;;;;4950890;29;20207;-58
2022/03/28 02:32:12;;;;;;;69.83;20.23;;;;;;;;;;4951869;29;20206;-58
2022/03/28 02:34:39;;;;;;;87.30;20.60;;;;;;;;;;4942505;29;20204;-58
2022/03/28 02:37:06;;;;;;;66.03;18.93;;;;;;;;;;4934116;29;20215;-58
2022/03/28 02:39:33;;;;;;;56.00;16.07;;;;;;;;;;4939299;29;20231;-58
2022/03/28 02:42:00;;;;;;;39.53;12.57;;;;;;;;;;4951709;29;20277;-58
2022/03/28 02:44:27;;;;;;;34.07;10.63;;;;;;;;;;4946444;29;20199;-58
2022/03/28 02:46:54;;;;;;;27.47;9.73;;;;;;;;;;4945667;29;20565;-58
2022/03/28 02:49:23;;;;;;;17.83;7.30;;;;;;;;;;4950063;28;20266;-58
2022/03/28 02:51:50;;;;;;;16.87;6.07;;;;;;;;;;4952322;29;20280;-58
2022/03/28 02:54:20;;;;;;;9.70;5.27;;;;;;;;;;4952353;29;20281;-58
2022/03/28 02:56:48;;;;;;;10.00;5.07;;;;;;;;;;4952143;29;20210;-58
2022/03/28 02:59:15;;;;;;;7.37;4.60;;;;;;;;;;4951090;29;20227;-58
2022/03/28 03:01:44;;;;;;;10.67;4.77;;;;;;;;;;4942384;29;20275;-59
2022/03/28 03:04:11;;;;;;;10.50;4.70;;;;;;;;;;4949342;29;20212;-58
2022/03/28 03:06:45;;;;;;;6.20;4.57;;;;;;;;;;4935133;29;20721;-58
2022/03/28 03:09:12;;;;;;;8.97;4.90;;;;;;;;;;4942132;29;20208;-58
2022/03/28 03:11:40;;;;;;;6.60;4.07;;;;;;;;;;4934300;29;20208;-58
2022/03/28 03:14:07;;;;;;;6.30;3.90;;;;;;;;;;4940217;29;20298;-58
2022/03/28 03:16:34;;;;;;;5.73;4.07;;;;;;;;;;4946871;29;20219;-58
2022/03/28 03:19:01;;;;;;;4.37;3.50;;;;;;;;;;4942682;29;20232;-58
2022/03/28 03:21:28;;;;;;;6.07;4.07;;;;;;;;;;4937215;29;20266;-58
2022/03/28 03:23:56;;;;;;;4.33;3.93;;;;;;;;;;4940427;29;20641;-58
2022/03/28 03:26:23;;;;;;;5.50;3.70;;;;;;;;;;4933118;29;20274;-58
2022/03/28 03:28:50;;;;;;;8.67;4.53;;;;;;;;;;4933542;29;20619;-58
2022/03/28 03:31:17;;;;;;;7.57;4.10;;;;;;;;;;4952110;29;20211;-58
2022/03/28 03:33:44;;;;;;;4.73;3.77;;;;;;;;;;4941432;29;20634;-58
2022/03/28 03:36:11;;;;;;;8.43;4.43;;;;;;;;;;4944460;29;20670;-58
2022/03/28 03:38:39;;;;;;;7.13;4.27;;;;;;;;;;4951037;29;20290;-58
2022/03/28 03:41:07;;;;;;;6.73;4.10;;;;;;;;;;4945384;29;20275;-58
2022/03/28 03:43:34;;;;;;;14.67;7.87;;;;;;;;;;4941240;29;20208;-58
2022/03/28 03:46:01;;;;;;;16.43;8.43;;;;;;;;;;4943564;29;20223;-58
2022/03/28 03:48:29;;;;;;;17.67;9.37;;;;;;;;;;4933829;29;20259;-58
2022/03/28 03:50:56;;;;;;;18.00;10.07;;;;;;;;;;4944403;29;20236;-58
2022/03/28 03:53:23;;;;;;;18.73;10.17;;;;;;;;;;4936336;29;20266;-57
2022/03/28 03:55:50;;;;;;;12.10;7.53;;;;;;;;;;4939481;29;20673;-58
2022/03/28 03:58:19;;;;;;;12.70;7.77;;;;;;;;;;4945006;29;20230;-58
2022/03/28 04:00:46;;;;;;;9.53;5.90;;;;;;;;;;4944323;28;20211;-58
2022/03/28 04:03:13;;;;;;;8.63;5.50;;;;;;;;;;4943746;29;20261;-58
2022/03/28 04:05:40;;;;;;;6.70;5.07;;;;;;;;;;4936669;29;20219;-58
2022/03/28 04:08:07;;;;;;;8.43;5.30;;;;;;;;;;4936241;29;20203;-57
2022/03/28 04:10:35;;;;;;;7.60;5.00;;;;;;;;;;4933430;29;20207;-57
2022/03/28 04:13:02;;;;;;;5.97;4.97;;;;;;;;;;4935362;29;20223;-58
2022/03/28 04:15:31;;;;;;;6.53;4.43;;;;;;;;;;4950162;29;20219;-58
2022/03/28 04:17:58;;;;;;;5.93;3.93;;;;;;;;;;4940957;29;20218;-58
2022/03/28 04:20:25;;;;;;;4.83;4.03;;;;;;;;;;4950056;29;20231;-58
2022/03/28 04:22:52;;;;;;;3.97;3.53;;;;;;;;;;4950667;29;20234;-58
2022/03/28 04:25:20;;;;;;;7.20;3.67;;;;;;;;;;4942691;29;20590;-58
2022/03/28 04:27:47;;;;;;;4.33;3.77;;;;;;;;;;4948803;29;20239;-58
2022/03/28 04:30:14;;;;;;;7.03;3.90;;;;;;;;;;4940876;29;20627;-58
2022/03/28 04:32:42;;;;;;;4.13;3.60;;;;;;;;;;4943079;29;20214;-58
2022/03/28 04:35:10;;;;;;;4.37;3.70;;;;;;;;;;4939637;29;20215;-58
2022/03/28 04:37:37;;;;;;;4.00;3.27;;;;;;;;;;4935872;29;20437;-57
2022/03/28 04:40:05;;;;;;;3.33;3.13;;;;;;;;;;4942439;29;20949;-57
2022/03/28 04:42:33;;;;;;;4.00;3.70;;;;;;;;;;4948813;29;20337;-58
2022/03/28 04:45:00;;;;;;;4.00;3.30;;;;;;;;;;4950828;29;20222;-57
2022/03/28 04:47:27;;;;;;;3.80;3.20;;;;;;;;;;4946924;29;20214;-57
2022/03/28 04:49:55;;;;;;;3.90;3.43;;;;;;;;;;4933348;29;20199;-57
2022/03/28 04:52:22;;;;;;;4.40;3.67;;;;;;;;;;4932499;29;20219;-57
2022/03/28 04:54:49;;;;;;;4.30;3.90;;;;;;;;;;4936386;29;20216;-57
2022/03/28 04:57:16;;;;;;;7.00;4.43;;;;;;;;;;4941444;28;20775;-57
2022/03/28 04:59:43;;;;;;;5.00;4.13;;;;;;;;;;4945896;29;20231;-58
2022/03/28 05:02:10;;;;;;;5.73;4.40;;;;;;;;;;4935621;29;20741;-58
2022/03/28 05:04:37;;;;;;;3.77;3.47;;;;;;;;;;4949974;29;20215;-57
2022/03/28 05:07:07;;;;;;;5.43;3.60;;;;;;;;;;4938212;29;20207;-57
2022/03/28 05:09:34;;;;;;;6.70;3.93;;;;;;;;;;4941597;29;20274;-58
2022/03/28 05:12:01;;;;;;;6.33;3.97;;;;;;;;;;4949841;28;20270;-57
2022/03/28 05:14:28;;;;;;;4.83;3.93;;;;;;;;;;4943627;29;20693;-58
2022/03/28 05:16:55;;;;;;;4.73;3.57;;;;;;;;;;4947819;29;20219;-58
2022/03/28 05:19:22;;;;;;;5.07;4.00;;;;;;;;;;4933440;29;20306;-57
2022/03/28 05:21:49;;;;;;;7.47;4.53;;;;;;;;;;4937133;29;20208;-57
2022/03/28 05:24:20;;;;;;;5.10;3.90;;;;;;;;;;4932619;29;20214;-57
2022/03/28 05:26:47;;;;;;;5.47;3.77;;;;;;;;;;4934224;29;20242;-57
2022/03/28 05:29:15;;;;;;;3.97;3.67;;;;;;;;;;4938774;29;20200;-57
2022/03/28 05:31:42;;;;;;;5.17;3.57;;;;;;;;;;4948213;29;20277;-57
2022/03/28 05:34:10;;;;;;;5.03;3.60;;;;;;;;;;4931556;29;20211;-58
2022/03/28 05:36:37;;;;;;;4.67;3.80;;;;;;;;;;4946090;29;20678;-57
2022/03/28 05:39:05;;;;;;;4.07;3.70;;;;;;;;;;4940991;29;20293;-58
2022/03/28 05:41:33;;;;;;;4.53;3.57;;;;;;;;;;4950423;29;20215;-57
2022/03/28 05:44:00;;;;;;;3.90;3.60;;;;;;;;;;4943816;29;20747;-57
2022/03/28 05:46:27;;;;;;;4.10;3.70;;;;;;;;;;4941149;29;20223;-57
2022/03/28 05:48:55;;;;;;;4.17;3.67;;;;;;;;;;4936594;29;20239;-58
2022/03/28 05:51:22;;;;;;;7.10;3.40;;;;;;;;;;4947323;28;20509;-58
2022/03/28 05:53:49;;;;;;;7.97;3.87;;;;;;;;;;4969469;28;20299;-58
2022/03/28 05:56:17;;;;;;;4.67;3.77;;;;;;;;;;4948955;28;20207;-58
2022/03/28 05:58:45;;;;;;;3.70;3.40;;;;;;;;;;4949067;29;20290;-59
2022/03/28 06:01:12;;;;;;;3.93;3.47;;;;;;;;;;4950247;29;20704;-55
2022/03/28 06:03:40;;;;;;;4.87;3.67;;;;;;;;;;4949929;29;20204;-57
2022/03/28 06:06:08;;;;;;;4.87;3.77;;;;;;;;;;4949668;29;20298;-56
2022/03/28 06:08:35;;;;;;;7.70;3.63;;;;;;;;;;4944001;29;20212;-56
2022/03/28 06:11:03;;;;;;;5.57;4.40;;;;;;;;;;4950264;29;20211;-57
2022/03/28 06:13:30;;;;;;;4.07;3.67;;;;;;;;;;4950310;29;20282;-56
2022/03/28 06:15:59;;;;;;;4.80;3.73;;;;;;;;;;4949419;29;20270;-57
2022/03/28 06:18:26;;;;;;;5.73;4.00;;;;;;;;;;4946323;29;20216;-57
2022/03/28 06:20:53;;;;;;;6.93;4.20;;;;;;;;;;4931076;29;20341;-57
2022/03/28 06:23:20;;;;;;;4.60;3.97;;;;;;;;;;4931294;29;20212;-57
2022/03/28 06:25:47;;;;;;;7.30;3.70;;;;;;;;;;4952613;29;20293;-57
2022/03/28 06:28:15;;;;;;;6.53;4.20;;;;;;;;;;4953225;29;20242;-56
2022/03/28 06:30:42;;;;;;;5.47;4.13;;;;;;;;;;4952134;29;20851;-57
2022/03/28 06:33:11;;;;;;;11.60;3.90;;;;;;;;;;4953212;29;20649;-57
2022/03/28 06:35:38;;;;;;;5.13;3.83;;;;;;;;;;4937443;29;20746;-57
2022/03/28 06:38:05;;;;;;;7.03;4.37;;;;;;;;;;4934166;29;20219;-57
2022/03/28 06:40:32;;;;;;;8.13;4.23;;;;;;;;;;4935611;29;20236;-57
2022/03/28 06:42:59;;;;;;;9.47;4.73;;;;;;;;;;4953373;29;20218;-57
2022/03/28 06:45:26;;;;;;;8.23;4.80;;;;;;;;;;4941916;29;20674;-57
2022/03/28 06:47:56;;;;;;;5.60;4.30;;;;;;;;;;4933857;29;20686;-57
2022/03/28 06:50:27;;;;;;;5.83;4.13;;;;;;;;;;4933896;29;20595;-57
2022/03/28 06:52:55;;;;;;;8.97;4.70;;;;;;;;;;4952869;29;20269;-58
2022/03/28 06:55:22;;;;;;;7.07;4.77;;;;;;;;;;4945782;29;20211;-57
2022/03/28 06:57:49;;;;;;;5.40;3.80;;;;;;;;;;4933882;29;20220;-57
2022/03/28 07:00:17;;;;;;;7.27;4.67;;;;;;;;;;4940697;29;20238;-57
2022/03/28 07:02:44;;;;;;;5.03;4.00;;;;;;;;;;4952955;29;20242;-57
2022/03/28 07:05:12;;;;;;;6.00;5.20;;;;;;;;;;4945023;29;20215;-56
2022/03/28 07:07:41;;;;;;;7.07;4.80;;;;;;;;;;4940570;29;20238;-58
2022/03/28 07:10:09;;;;;;;6.27;4.57;;;;;;;;;;4952542;29;20207;-57
2022/03/28 07:12:36;;;;;;;7.93;4.78;;;;;;;;;;4951947;29;20211;-57
2022/03/28 07:15:03;;;;;;;5.37;4.47;;;;;;;;;;4952511;29;20215;-58
2022/03/28 07:17:30;;;;;;;6.32;4.65;;;;;;;;;;4947736;29;20215;-56
2022/03/28 07:19:57;;;;;;;5.25;4.80;;;;;;;;;;4942884;29;20235;-57
2022/03/28 07:22:24;;;;;;;5.93;5.20;;;;;;;;;;4949779;29;20686;-57
2022/03/28 07:24:52;;;;;;;6.35;5.25;;;;;;;;;;4951623;29;20227;-58
2022/03/28 07:27:19;;;;;;;6.05;4.88;;;;;;;;;;4943314;29;20721;-57
2022/03/28 07:29:46;;;;;;;5.65;4.60;;;;;;;;;;4935701;29;20361;-57
2022/03/28 07:32:13;;;;;;;6.07;4.78;;;;;;;;;;4946899;29;20266;-57
2022/03/28 07:34:40;;;;;;;6.22;4.90;;;;;;;;;;4939431;29;20302;-58
2022/03/28 07:37:09;;;;;;;7.32;4.95;;;;;;;;;;4946697;29;20266;-58
2022/03/28 07:39:38;;;;;;;7.03;5.50;;;;;;;;;;4952132;29;20235;-57
2022/03/28 07:42:07;;;;;;;6.75;5.25;;;;;;;;;;4950030;29;20204;-58
2022/03/28 07:44:35;;;;;;;7.40;4.82;;;;;;;;;;4948471;29;20211;-57
2022/03/28 07:47:02;;;;;;;6.28;5.40;;;;;;;;;;4951335;29;20278;-57
2022/03/28 07:49:30;;;;;;;5.82;5.30;;;;;;;;;;4933526;29;20270;-66
2022/03/28 07:51:57;;;;;;;5.50;4.97;;;;;;;;;;4944697;29;20315;-57
2022/03/28 07:54:24;;;;;;;6.18;5.57;;;;;;;;;;4934954;29;20219;-57
2022/03/28 07:56:51;;;;;;;5.43;4.87;;;;;;;;;;4948081;29;20219;-57
2022/03/28 07:59:19;;;;;;;4.93;4.53;;;;;;;;;;4951453;29;20210;-57
2022/03/28 08:01:46;;;;;;;5.93;5.32;;;;;;;;;;4951592;29;20219;-57
2022/03/28 08:04:13;;;;;;;8.07;5.53;;;;;;;;;;4947785;29;20212;-57
2022/03/28 08:06:40;;;;;;;10.52;4.53;;;;;;;;;;4931976;29;20215;-57
2022/03/28 08:09:08;;;;;;;7.20;5.13;;;;;;;;;;4932241;29;20226;-58
2022/03/28 08:11:35;;;;;;;7.38;5.63;;;;;;;;;;4932124;29;20215;-57
2022/03/28 08:14:03;;;;;;;5.50;5.00;;;;;;;;;;4932021;29;20216;-57
2022/03/28 08:16:31;;;;;;;8.27;5.82;;;;;;;;;;4931615;29;20322;-57
2022/03/28 08:18:59;;;;;;;7.38;5.55;;;;;;;;;;4931210;29;20262;-57
2022/03/28 08:21:26;;;;;;;8.00;5.55;;;;;;;;;;4931375;29;20246;-57
2022/03/28 08:23:53;;;;;;;7.75;5.55;;;;;;;;;;4935227;29;20297;-56
2022/03/28 08:26:20;;;;;;;6.70;5.28;;;;;;;;;;4943487;29;20230;-58
2022/03/28 08:28:47;;;;;;;8.65;5.40;;;;;;;;;;4938857;29;20259;-55
2022/03/28 08:31:14;;;;;;;7.13;5.75;;;;;;;;;;4948502;29;20214;-55
2022/03/28 08:33:42;;;;;;;6.10;5.35;;;;;;;;;;4950870;29;20210;-56
2022/03/28 08:36:10;;;;;;;6.47;5.63;;;;;;;;;;4937945;29;20278;-55
2022/03/28 08:38:39;;;;;;;9.45;5.65;;;;;;;;;;4932948;29;20298;-56
2022/03/28 08:41:12;;;;;;;7.05;5.25;;;;;;;;;;4949183;29;20227;-55
2022/03/28 08:43:39;;;;;;;6.50;5.53;;;;;;;;;;4943479;29;20207;-55
2022/03/28 08:46:08;;;;;;;7.90;5.78;;;;;;;;;;4949779;28;20215;-55
2022/03/28 08:48:38;;;;;;;6.30;5.28;;;;;;;;;;4950641;29;20262;-56
2022/03/28 08:51:06;;;;;;;8.45;5.05;;;;;;;;;;4946414;29;20666;-56
2022/03/28 08:53:34;;;;;;;6.68;5.72;;;;;;;;;;4950768;29;20317;-56
2022/03/28 08:56:01;;;;;;;8.07;5.80;;;;;;;;;;4938953;29;20211;-56
2022/03/28 08:58:28;;;;;;;7.72;5.93;;;;;;;;;;4950372;29;20331;-56
2022/03/28 09:00:55;;;;;;;7.53;6.03;;;;;;;;;;4948259;29;20234;-56
2022/03/28 09:03:35;;;;;;;6.80;5.57;;;;;;;;;;4950442;29;20218;-55
2022/03/28 09:06:02;;;;;;;7.00;5.57;;;;;;;;;;4937759;29;20211;-55
2022/03/28 09:08:38;;;;;;;8.40;7.55;;;;;;;;;;4949088;29;20850;-57
2022/03/28 09:11:20;;;;;;;9.35;6.28;;;;;;;;;;4940641;29;20258;-58
2022/03/28 09:13:47;;;;;;;7.30;6.18;;;;;;;;;;4950574;29;20254;-58
2022/03/28 09:16:19;;;;;;;9.32;6.15;;;;;;;;;;4940415;29;20210;-61
2022/03/28 09:18:46;;;;;;;7.80;5.15;;;;;;;;;;4950481;29;20218;-61
2022/03/28 09:21:14;;;;;;;6.68;5.63;;;;;;;;;;4950510;29;20701;-63
2022/03/28 09:23:44;;;;;;;10.18;6.30;;;;;;;;;;4949952;29;20264;-62
2022/03/28 09:26:13;;;;;;;7.97;5.88;;;;;;;;;;4949553;29;20539;-65
2022/03/28 09:28:47;;;;;;;5.47;4.93;;;;;;;;;;4950473;29;20641;-57
2022/03/28 09:31:18;;;;;;;5.88;5.28;;;;;;;;;;4948203;29;20298;-56
2022/03/28 09:33:52;;;;;;;6.20;5.25;;;;;;;;;;4939231;29;20208;-56
2022/03/28 09:36:19;;;;;;;5.50;5.03;;;;;;;;;;4940582;29;20218;-56
2022/03/28 09:38:57;;;;;;;6.90;5.40;;;;;;;;;;4932027;29;20749;-56
2022/03/28 09:41:24;;;;;;;5.38;4.88;;;;;;;;;;4932286;29;20229;-56
2022/03/28 09:43:55;;;;;;;6.03;5.38;;;;;;;;;;4936547;29;20567;-60
2022/03/28 09:46:26;;;;;;;8.30;6.43;;;;;;;;;;4938312;29;20274;-56
2022/03/28 09:48:53;;;;;;;7.50;5.43;;;;;;;;;;4932641;29;20207;-55
2022/03/28 09:51:21;;;;;;;7.00;5.40;;;;;;;;;;4949721;29;20293;-55
2022/03/28 09:53:49;;;;;;;5.68;4.65;;;;;;;;;;4945504;29;20203;-55
2022/03/28 09:56:18;;;;;;;5.95;5.18;;;;;;;;;;4943889;29;20215;-56
2022/03/28 09:58:47;;;;;;;8.57;5.30;;;;;;;;;;4946778;28;20207;-55
2022/03/28 10:01:16;;;;;;;6.72;5.80;;;;;;;;;;4940230;29;20234;-56
2022/03/28 10:03:45;;;;;;;5.75;5.15;;;;;;;;;;4932837;29;20212;-57
2022/03/28 10:06:12;;;;;;;4.72;4.22;;;;;;;;;;4946503;29;20215;-56
2022/03/28 10:08:39;;;;;;;5.45;4.75;;;;;;;;;;4949611;29;20332;-55
2022/03/28 10:11:06;;;;;;;6.40;5.75;;;;;;;;;;4936903;29;20266;-56
2022/03/28 10:13:35;;;;;;;8.27;5.72;;;;;;;;;;4948235;29;20572;-56
2022/03/28 10:16:03;;;;;;;8.25;4.90;;;;;;;;;;4948692;29;20254;-55
2022/03/28 10:18:31;;;;;;;7.47;5.40;;;;;;;;;;4949365;29;20806;-56
2022/03/28 10:20:59;;;;;;;5.28;4.78;;;;;;;;;;4945537;29;20231;-55
2022/03/28 10:23:30;;;;;;;9.50;5.18;;;;;;;;;;4948474;29;20258;-56
2022/03/28 10:25:57;;;;;;;6.25;5.65;;;;;;;;;;4946432;29;20243;-56
2022/03/28 10:28:25;;;;;;;6.53;5.68;;;;;;;;;;4941259;29;20245;-56
2022/03/28 10:31:06;;;;;;;7.45;5.97;;;;;;;;;;4944171;29;20266;-56
2022/03/28 10:33:35;;;;;;;7.80;5.68;;;;;;;;;;4943563;29;20211;-55
2022/03/28 10:36:05;;;;;;;6.22;5.53;;;;;;;;;;4947550;29;20669;-55
2022/03/28 10:38:32;;;;;;;5.18;4.70;;;;;;;;;;4946053;29;20215;-55
2022/03/28 10:40:59;;;;;;;6.13;5.22;;;;;;;;;;4947705;29;20231;-56
2022/03/28 10:43:28;;;;;;;12.48;6.57;;;;;;;;;;4945181;29;20289;-55
2022/03/28 10:45:56;;;;;;;11.90;5.10;;;;;;;;;;4940172;29;20220;-56
2022/03/28 10:48:39;;;;;;;6.80;5.32;;;;;;;;;;4946225;29;20235;-55
2022/03/28 10:51:07;;;;;;;9.02;5.72;;;;;;;;;;4944482;29;20207;-58
2022/03/28 10:53:37;;;;;;;8.88;5.55;;;;;;;;;;4946641;29;20218;-57
2022/03/28 10:56:06;;;;;;;6.93;6.05;;;;;;;;;;4937915;29;20922;-57
2022/03/28 10:58:37;;;;;;;7.28;6.57;;;;;;;;;;4938627;29;20547;-57
2022/03/28 11:01:24;;;;;;;6.88;5.32;;;;;;;;;;4941844;29;20258;-58
2022/03/28 11:03:57;;;;;;;5.53;4.97;;;;;;;;;;4939287;29;20215;-57
2022/03/28 11:06:41;;;;;;;7.20;5.10;;;;;;;;;;4940356;29;20203;-57
2022/03/28 11:09:08;;;;;;;5.13;4.70;;;;;;;;;;4935266;28;20211;-57
2022/03/28 11:11:36;;;;;;;9.10;6.88;;;;;;;;;;4932833;29;20207;-56
2022/03/28 11:14:04;;;;;;;8.27;6.25;;;;;;;;;;4937249;29;20207;-57
2022/03/28 11:16:41;;;;;;;7.15;5.00;;;;;;;;;;4942014;29;20306;-58
2022/03/28 11:19:29;;;;;;;6.32;5.72;;;;;;;;;;4947440;29;20656;-58
2022/03/28 11:22:00;;;;;;;6.18;4.72;;;;;;;;;;4945327;29;20602;-58
2022/03/28 11:24:44;;;;;;;5.78;4.90;;;;;;;;;;4934000;29;20279;-58
2022/03/28 11:27:11;;;;;;;8.48;6.25;;;;;;;;;;4942694;29;20246;-58
2022/03/28 11:29:38;;;;;;;7.50;5.10;;;;;;;;;;4945336;29;20222;-58
2022/03/28 11:32:06;;;;;;;6.32;5.40;;;;;;;;;;4947248;29;20215;-58
2022/03/28 11:34:34;;;;;;;6.75;4.60;;;;;;;;;;4947304;29;20491;-56
2022/03/28 11:37:03;;;;;;;7.07;4.72;;;;;;;;;;4944817;29;20258;-57
2022/03/28 11:39:32;;;;;;;6.32;4.57;;;;;;;;;;4932751;29;20216;-58
2022/03/28 11:41:59;;;;;;;5.60;4.95;;;;;;;;;;4939756;29;20231;-58
2022/03/28 11:44:26;;;;;;;6.50;4.93;;;;;;;;;;4944506;29;20270;-59
2022/03/28 11:46:57;;;;;;;5.60;4.90;;;;;;;;;;4941748;29;20234;-58
2022/03/28 11:49:25;;;;;;;5.78;5.20;;;;;;;;;;4935004;29;20734;-58
2022/03/28 11:51:53;;;;;;;5.20;4.70;;;;;;;;;;4947592;29;20688;-56
2022/03/28 11:54:22;;;;;;;5.70;4.70;;;;;;;;;;4947210;29;20274;-57
2022/03/28 11:59:41;;;;;;;7.45;4.80;;;;;;;;;;4945965;29;20214;-57
2022/03/28 12:02:09;;;;;;;6.60;4.50;;;;;;;;;;4947276;29;20235;-57
2022/03/28 12:04:44;;;;;;;4.57;3.72;;;;;;;;;;4944860;29;20214;-59
2022/03/28 12:07:12;;;;;;;5.50;3.58;;;;;;;;;;4942387;29;20275;-56
2022/03/28 12:09:42;;;;;;;5.25;3.88;;;;;;;;;;4936483;29;20283;-58
2022/03/28 12:12:10;;;;;;;3.97;3.65;;;;;;;;;;4928663;29;20216;-57
2022/03/28 12:14:38;;;;;;;4.70;4.22;;;;;;;;;;4929507;29;20212;-57
2022/03/28 12:17:05;;;;;;;5.00;3.80;;;;;;;;;;4938995;29;20213;-57
2022/03/28 12:19:33;;;;;;;5.57;4.05;;;;;;;;;;4945273;29;20211;-57
2022/03/28 12:22:14;;;;;;;5.07;4.13;;;;;;;;;;4932868;28;20290;-56
2022/03/28 12:24:51;;;;;;;6.00;4.32;;;;;;;;;;4945496;29;20294;-57
2022/03/28 12:27:19;;;;;;;4.03;3.63;;;;;;;;;;4945365;29;20699;-57
2022/03/28 12:29:46;;;;;;;4.05;3.67;;;;;;;;;;4940349;29;20222;-57
2022/03/28 12:32:16;;;;;;;6.85;4.13;;;;;;;;;;4928833;29;20639;-57
2022/03/28 12:34:43;;;;;;;4.07;3.63;;;;;;;;;;4942945;29;20558;-57
2022/03/28 12:37:14;;;;;;;3.72;3.38;;;;;;;;;;4947015;29;20211;-58
2022/03/28 12:39:43;;;;;;;4.57;4.05;;;;;;;;;;4946834;29;20211;-58
2022/03/28 12:42:25;;;;;;;3.75;3.38;;;;;;;;;;4942554;29;20235;-57
2022/03/28 12:44:54;;;;;;;3.50;3.25;;;;;;;;;;4946822;29;20218;-57
2022/03/28 12:47:21;;;;;;;3.75;3.47;;;;;;;;;;4946767;29;20210;-57
2022/03/28 12:49:48;;;;;;;4.07;3.75;;;;;;;;;;4931476;29;20325;-57
2022/03/28 12:52:19;;;;;;;3.92;3.53;;;;;;;;;;4935080;29;20845;-59
2022/03/28 12:54:46;;;;;;;4.15;3.58;;;;;;;;;;4960474;28;20218;-58
2022/03/28 12:57:26;;;;;;;3.60;3.25;;;;;;;;;;4939320;28;20219;-58
2022/03/28 12:59:54;;;;;;;4.63;3.20;;;;;;;;;;4962630;28;20214;-58
2022/03/28 13:02:21;;;;;;;3.90;3.42;;;;;;;;;;4927905;29;20258;-57
2022/03/28 13:04:49;;;;;;;3.97;3.63;;;;;;;;;;4928061;29;20271;-57
2022/03/28 13:07:22;;;;;;;4.65;3.60;;;;;;;;;;4928022;29;20689;-57
2022/03/28 13:09:56;;;;;;;4.43;3.55;;;;;;;;;;4933355;29;20219;-57
2022/03/28 13:12:34;;;;;;;3.83;3.40;;;;;;;;;;4942403;29;20199;-57
2022/03/28 13:15:01;;;;;;;5.75;4.10;;;;;;;;;;4945130;29;20219;-60
2022/03/28 13:17:29;;;;;;;4.35;3.13;;;;;;;;;;4939186;29;20776;-58
2022/03/28 13:19:57;;;;;;;4.63;4.18;;;;;;;;;;4940431;29;20233;-58
2022/03/28 13:22:29;;;;;;;3.85;3.45;;;;;;;;;;4946210;29;20235;-58
2022/03/28 13:25:07;;;;;;;5.45;3.47;;;;;;;;;;4945892;29;20234;-58
2022/03/28 13:30:22;;;;;;;2.90;2.70;;;;;;;;;;4937367;29;20210;-58
2022/03/28 13:32:49;;;;;;;3.63;3.30;;;;;;;;;;4937802;28;20207;-56
2022/03/28 13:35:17;;;;;;;3.05;2.85;;;;;;;;;;4932427;29;20290;-57
2022/03/28 13:37:53;;;;;;;4.50;3.60;;;;;;;;;;4949855;28;20214;-55
2022/03/28 13:40:20;;;;;;;3.72;2.80;;;;;;;;;;4950138;29;20207;-54
2022/03/28 13:42:49;;;;;;;5.50;3.25;;;;;;;;;;4936312;28;20239;-56
2022/03/28 13:45:16;;;;;;;3.70;3.25;;;;;;;;;;4941811;29;20414;-55
2022/03/28 13:47:43;;;;;;;4.00;3.67;;;;;;;;;;4942818;29;20777;-54
2022/03/28 13:50:22;;;;;;;3.55;3.28;;;;;;;;;;4934681;29;20314;-57
2022/03/28 13:52:49;;;;;;;4.32;3.25;;;;;;;;;;4943279;28;20207;-55
2022/03/28 13:55:17;;;;;;;3.63;3.30;;;;;;;;;;4934038;29;20215;-55
2022/03/28 13:57:44;;;;;;;4.53;3.60;;;;;;;;;;4948371;29;20640;-55
2022/03/28 14:00:14;;;;;;;3.47;3.15;;;;;;;;;;4947196;29;20344;-56
2022/03/28 14:02:41;;;;;;;3.58;3.22;;;;;;;;;;4946888;29;20226;-56
2022/03/28 14:05:08;;;;;;;3.45;3.15;;;;;;;;;;4947393;29;20230;-55
2022/03/28 14:07:36;;;;;;;2.95;2.75;;;;;;;;;;4945824;29;20215;-56
2022/03/28 14:10:03;;;;;;;3.33;3.05;;;;;;;;;;4946275;29;20234;-56
2022/03/28 14:12:30;;;;;;;5.22;3.70;;;;;;;;;;4948337;29;20211;-55
2022/03/28 14:14:57;;;;;;;3.78;2.88;;;;;;;;;;4944730;29;20222;-56
2022/03/28 14:17:27;;;;;;;3.75;3.35;;;;;;;;;;4947653;29;20383;-55
2022/03/28 14:19:55;;;;;;;3.42;3.17;;;;;;;;;;4948286;29;20670;-56
2022/03/28 14:22:22;;;;;;;4.57;3.65;;;;;;;;;;4947370;29;20230;-56
2022/03/28 14:24:49;;;;;;;4.95;3.03;;;;;;;;;;4942949;29;20236;-57
2022/03/28 14:27:17;;;;;;;2.78;2.58;;;;;;;;;;4933326;29;20800;-57
2022/03/28 14:29:44;;;;;;;3.15;2.92;;;;;;;;;;4938525;29;20211;-56
2022/03/28 14:32:12;;;;;;;3.50;3.15;;;;;;;;;;4930583;29;20214;-56
2022/03/28 14:34:41;;;;;;;3.70;3.40;;;;;;;;;;4930536;29;20761;-56
2022/03/28 14:37:08;;;;;;;5.07;3.42;;;;;;;;;;4930965;29;20203;-56
2022/03/28 14:39:35;;;;;;;4.00;3.38;;;;;;;;;;4930134;29;20643;-56
2022/03/28 14:42:03;;;;;;;3.38;3.08;;;;;;;;;;4934941;29;20223;-56
2022/03/28 14:44:30;;;;;;;3.97;3.38;;;;;;;;;;4935412;29;20278;-56
2022/03/28 14:47:03;;;;;;;3.67;3.38;;;;;;;;;;4934875;29;20211;-56
2022/03/28 14:49:30;;;;;;;3.72;3.33;;;;;;;;;;4936921;29;20227;-57
2022/03/28 14:51:58;;;;;;;3.70;3.40;;;;;;;;;;4931420;29;20238;-56
2022/03/28 14:54:26;;;;;;;3.28;2.75;;;;;;;;;;4942001;29;20927;-55